sensor_id;sensor_type;location;lat;lon;timestamp;P1;durP1;ratioP1;P2;durP2;ratioP2
13973;SDS011;7060;43.770;4.008;2023-04-07T00:00:47;3.00;;;1.57;;
13973;SDS011;7060;43.770;4.008;2023-04-07T00:03:16;2.77;;;1.50;;
13973;SDS011;7060;43.770;4.008;2023-04-07T00:05:45;3.03;;;1.63;;
13973;SDS011;7060;43.770;4.008;2023-04-07T00:08:14;2.90;;;1.40;;
13973;SDS011;7060;43.770;4.008;2023-04-07T00:10:43;2.43;;;1.33;;
13973;SDS011;7060;43.770;4.008;2023-04-07T00:13:11;2.00;;;1.20;;
13973;SDS011;7060;43.770;4.008;2023-04-07T00:15:40;3.23;;;1.10;;
13973;SDS011;7060;43.770;4.008;2023-04-07T00:18:08;2.50;;;1.33;;
13973;SDS011;7060;43.770;4.008;2023-04-07T00:20:37;2.10;;;1.40;;
13973;SDS011;7060;43.770;4.008;2023-04-07T00:23:05;2.17;;;1.43;;
13973;SDS011;7060;43.770;4.008;2023-04-07T00:25:35;2.17;;;1.27;;
13973;SDS011;7060;43.770;4.008;2023-04-07T00:28:04;3.07;;;1.33;;
13973;SDS011;7060;43.770;4.008;2023-04-07T00:30:32;2.40;;;1.37;;
13973;SDS011;7060;43.770;4.008;2023-04-07T00:33:00;1.57;;;1.10;;
13973;SDS011;7060;43.770;4.008;2023-04-07T00:35:29;2.47;;;1.27;;
13973;SDS011;7060;43.770;4.008;2023-04-07T00:37:58;3.20;;;1.70;;
13973;SDS011;7060;43.770;4.008;2023-04-07T00:40:26;2.03;;;1.40;;
13973;SDS011;7060;43.770;4.008;2023-04-07T00:42:56;2.93;;;1.50;;
13973;SDS011;7060;43.770;4.008;2023-04-07T00:45:25;2.60;;;1.53;;
13973;SDS011;7060;43.770;4.008;2023-04-07T00:47:53;3.27;;;1.60;;
13973;SDS011;7060;43.770;4.008;2023-04-07T00:50:24;4.07;;;1.33;;
13973;SDS011;7060;43.770;4.008;2023-04-07T00:52:53;2.37;;;1.70;;
13973;SDS011;7060;43.770;4.008;2023-04-07T00:55:23;3.93;;;2.17;;
13973;SDS011;7060;43.770;4.008;2023-04-07T00:57:53;3.30;;;1.40;;
13973;SDS011;7060;43.770;4.008;2023-04-07T01:00:24;4.47;;;1.60;;
13973;SDS011;7060;43.770;4.008;2023-04-07T01:02:56;6.17;;;1.50;;
13973;SDS011;7060;43.770;4.008;2023-04-07T01:05:29;2.60;;;1.30;;
13973;SDS011;7060;43.770;4.008;2023-04-07T01:08:07;2.63;;;1.43;;
13973;SDS011;7060;43.770;4.008;2023-04-07T01:10:44;2.10;;;1.40;;
13973;SDS011;7060;43.770;4.008;2023-04-07T01:13:21;2.33;;;1.30;;
13973;SDS011;7060;43.770;4.008;2023-04-07T01:16:10;1.80;;;1.33;;
13973;SDS011;7060;43.770;4.008;2023-04-07T01:18:49;2.10;;;1.50;;
13973;SDS011;7060;43.770;4.008;2023-04-07T01:21:21;2.77;;;1.30;;
13973;SDS011;7060;43.770;4.008;2023-04-07T01:24:04;4.10;;;1.57;;
13973;SDS011;7060;43.770;4.008;2023-04-07T01:26:52;2.23;;;1.20;;
13973;SDS011;7060;43.770;4.008;2023-04-07T01:29:32;2.67;;;1.60;;
13973;SDS011;7060;43.770;4.008;2023-04-07T01:32:04;1.80;;;1.30;;
13973;SDS011;7060;43.770;4.008;2023-04-07T01:34:34;3.43;;;1.00;;
13973;SDS011;7060;43.770;4.008;2023-04-07T01:37:05;3.57;;;1.63;;
13973;SDS011;7060;43.770;4.008;2023-04-07T01:39:34;2.17;;;1.20;;
13973;SDS011;7060;43.770;4.008;2023-04-07T01:42:05;4.37;;;1.40;;
13973;SDS011;7060;43.770;4.008;2023-04-07T01:44:36;1.97;;;1.30;;
13973;SDS011;7060;43.770;4.008;2023-04-07T01:47:06;3.50;;;1.20;;
13973;SDS011;7060;43.770;4.008;2023-04-07T01:49:35;2.30;;;1.37;;
13973;SDS011;7060;43.770;4.008;2023-04-07T01:52:05;2.40;;;1.30;;
13973;SDS011;7060;43.770;4.008;2023-04-07T01:54:34;1.90;;;1.20;;
13973;SDS011;7060;43.770;4.008;2023-04-07T01:57:04;3.23;;;1.63;;
13973;SDS011;7060;43.770;4.008;2023-04-07T01:59:32;2.60;;;1.70;;
13973;SDS011;7060;43.770;4.008;2023-04-07T02:02:04;2.30;;;1.10;;
13973;SDS011;7060;43.770;4.008;2023-04-07T02:04:34;2.03;;;1.40;;
13973;SDS011;7060;43.770;4.008;2023-04-07T02:07:09;2.67;;;1.40;;
13973;SDS011;7060;43.770;4.008;2023-04-07T02:09:50;3.77;;;1.47;;
13973;SDS011;7060;43.770;4.008;2023-04-07T02:12:23;2.63;;;1.70;;
13973;SDS011;7060;43.770;4.008;2023-04-07T02:15:07;4.50;;;1.77;;
13973;SDS011;7060;43.770;4.008;2023-04-07T02:17:42;1.97;;;1.40;;
13973;SDS011;7060;43.770;4.008;2023-04-07T02:20:14;4.03;;;2.33;;
13973;SDS011;7060;43.770;4.008;2023-04-07T02:22:44;2.00;;;1.30;;
13973;SDS011;7060;43.770;4.008;2023-04-07T02:25:20;3.73;;;1.20;;
13973;SDS011;7060;43.770;4.008;2023-04-07T02:27:49;1.87;;;1.30;;
13973;SDS011;7060;43.770;4.008;2023-04-07T02:30:18;2.73;;;1.40;;
13973;SDS011;7060;43.770;4.008;2023-04-07T02:32:48;1.67;;;1.20;;
13973;SDS011;7060;43.770;4.008;2023-04-07T02:35:17;2.87;;;1.20;;
13973;SDS011;7060;43.770;4.008;2023-04-07T02:37:46;5.50;;;1.53;;
13973;SDS011;7060;43.770;4.008;2023-04-07T02:40:14;3.43;;;1.40;;
13973;SDS011;7060;43.770;4.008;2023-04-07T02:42:43;2.33;;;1.40;;
13973;SDS011;7060;43.770;4.008;2023-04-07T02:45:12;2.40;;;1.40;;
13973;SDS011;7060;43.770;4.008;2023-04-07T02:47:40;1.80;;;1.00;;
13973;SDS011;7060;43.770;4.008;2023-04-07T02:50:10;1.93;;;1.40;;
13973;SDS011;7060;43.770;4.008;2023-04-07T02:52:39;2.23;;;1.50;;
13973;SDS011;7060;43.770;4.008;2023-04-07T02:55:11;1.63;;;1.10;;
13973;SDS011;7060;43.770;4.008;2023-04-07T02:57:40;3.83;;;1.53;;
13973;SDS011;7060;43.770;4.008;2023-04-07T03:00:18;2.00;;;1.30;;
13973;SDS011;7060;43.770;4.008;2023-04-07T03:03:06;2.83;;;1.50;;
13973;SDS011;7060;43.770;4.008;2023-04-07T03:05:39;2.40;;;1.20;;
13973;SDS011;7060;43.770;4.008;2023-04-07T03:08:09;2.60;;;1.60;;
13973;SDS011;7060;43.770;4.008;2023-04-07T03:10:39;1.90;;;1.33;;
13973;SDS011;7060;43.770;4.008;2023-04-07T03:13:08;2.87;;;1.90;;
13973;SDS011;7060;43.770;4.008;2023-04-07T03:15:38;3.50;;;1.70;;
13973;SDS011;7060;43.770;4.008;2023-04-07T03:18:07;3.63;;;1.50;;
13973;SDS011;7060;43.770;4.008;2023-04-07T03:20:39;3.70;;;1.63;;
13973;SDS011;7060;43.770;4.008;2023-04-07T03:23:10;2.20;;;1.23;;
13973;SDS011;7060;43.770;4.008;2023-04-07T03:25:38;2.03;;;1.27;;
13973;SDS011;7060;43.770;4.008;2023-04-07T03:28:09;2.50;;;1.50;;
13973;SDS011;7060;43.770;4.008;2023-04-07T03:30:39;3.67;;;1.70;;
13973;SDS011;7060;43.770;4.008;2023-04-07T03:33:07;3.17;;;1.40;;
13973;SDS011;7060;43.770;4.008;2023-04-07T03:35:36;1.73;;;1.10;;
13973;SDS011;7060;43.770;4.008;2023-04-07T03:38:08;2.07;;;1.33;;
13973;SDS011;7060;43.770;4.008;2023-04-07T03:40:36;2.37;;;1.70;;
13973;SDS011;7060;43.770;4.008;2023-04-07T03:43:05;4.03;;;1.43;;
13973;SDS011;7060;43.770;4.008;2023-04-07T03:45:38;2.33;;;1.37;;
13973;SDS011;7060;43.770;4.008;2023-04-07T03:48:08;2.80;;;1.40;;
13973;SDS011;7060;43.770;4.008;2023-04-07T03:50:47;2.57;;;1.37;;
13973;SDS011;7060;43.770;4.008;2023-04-07T03:53:19;2.10;;;1.30;;
13973;SDS011;7060;43.770;4.008;2023-04-07T03:55:48;2.50;;;1.40;;
13973;SDS011;7060;43.770;4.008;2023-04-07T03:58:36;2.30;;;1.07;;
13973;SDS011;7060;43.770;4.008;2023-04-07T04:01:11;3.23;;;1.43;;
13973;SDS011;7060;43.770;4.008;2023-04-07T04:03:42;2.13;;;1.20;;
13973;SDS011;7060;43.770;4.008;2023-04-07T04:06:22;3.10;;;1.50;;
13973;SDS011;7060;43.770;4.008;2023-04-07T04:08:54;1.57;;;1.40;;
13973;SDS011;7060;43.770;4.008;2023-04-07T04:11:24;1.57;;;1.27;;
13973;SDS011;7060;43.770;4.008;2023-04-07T04:13:57;3.13;;;1.70;;
13973;SDS011;7060;43.770;4.008;2023-04-07T04:16:26;1.73;;;1.37;;
13973;SDS011;7060;43.770;4.008;2023-04-07T04:18:57;3.00;;;1.63;;
13973;SDS011;7060;43.770;4.008;2023-04-07T04:21:28;1.73;;;1.20;;
13973;SDS011;7060;43.770;4.008;2023-04-07T04:23:59;2.40;;;1.40;;
13973;SDS011;7060;43.770;4.008;2023-04-07T04:26:28;3.83;;;1.70;;
13973;SDS011;7060;43.770;4.008;2023-04-07T04:29:03;3.60;;;1.47;;
13973;SDS011;7060;43.770;4.008;2023-04-07T04:31:32;3.40;;;1.53;;
13973;SDS011;7060;43.770;4.008;2023-04-07T04:34:00;3.67;;;1.40;;
13973;SDS011;7060;43.770;4.008;2023-04-07T04:36:29;3.37;;;1.80;;
13973;SDS011;7060;43.770;4.008;2023-04-07T04:39:04;2.70;;;1.47;;
13973;SDS011;7060;43.770;4.008;2023-04-07T04:41:34;3.57;;;1.50;;
13973;SDS011;7060;43.770;4.008;2023-04-07T04:44:03;7.43;;;2.07;;
13973;SDS011;7060;43.770;4.008;2023-04-07T04:46:33;4.80;;;1.73;;
13973;SDS011;7060;43.770;4.008;2023-04-07T04:49:01;4.73;;;1.87;;
13973;SDS011;7060;43.770;4.008;2023-04-07T04:51:30;5.10;;;2.00;;
13973;SDS011;7060;43.770;4.008;2023-04-07T04:54:06;2.07;;;1.40;;
13973;SDS011;7060;43.770;4.008;2023-04-07T04:56:36;3.67;;;1.80;;
13973;SDS011;7060;43.770;4.008;2023-04-07T04:59:05;2.67;;;1.70;;
13973;SDS011;7060;43.770;4.008;2023-04-07T05:01:42;3.20;;;1.40;;
13973;SDS011;7060;43.770;4.008;2023-04-07T05:04:14;2.17;;;1.50;;
13973;SDS011;7060;43.770;4.008;2023-04-07T05:06:50;3.33;;;1.60;;
13973;SDS011;7060;43.770;4.008;2023-04-07T05:09:25;3.00;;;1.47;;
13973;SDS011;7060;43.770;4.008;2023-04-07T05:11:54;2.03;;;1.23;;
13973;SDS011;7060;43.770;4.008;2023-04-07T05:14:24;2.47;;;1.90;;
13973;SDS011;7060;43.770;4.008;2023-04-07T05:16:59;2.20;;;1.23;;
13973;SDS011;7060;43.770;4.008;2023-04-07T05:19:27;2.13;;;1.30;;
13973;SDS011;7060;43.770;4.008;2023-04-07T05:22:03;2.20;;;1.40;;
13973;SDS011;7060;43.770;4.008;2023-04-07T05:24:40;2.80;;;1.70;;
13973;SDS011;7060;43.770;4.008;2023-04-07T05:27:09;2.30;;;1.77;;
13973;SDS011;7060;43.770;4.008;2023-04-07T05:29:38;2.30;;;1.60;;
13973;SDS011;7060;43.770;4.008;2023-04-07T05:32:14;1.87;;;1.40;;
13973;SDS011;7060;43.770;4.008;2023-04-07T05:34:43;2.47;;;1.40;;
13973;SDS011;7060;43.770;4.008;2023-04-07T05:37:12;2.60;;;1.33;;
13973;SDS011;7060;43.770;4.008;2023-04-07T05:39:43;2.30;;;1.70;;
13973;SDS011;7060;43.770;4.008;2023-04-07T05:42:13;2.73;;;1.40;;
13973;SDS011;7060;43.770;4.008;2023-04-07T05:44:44;6.43;;;1.93;;
13973;SDS011;7060;43.770;4.008;2023-04-07T05:47:13;6.20;;;2.07;;
13973;SDS011;7060;43.770;4.008;2023-04-07T05:49:42;12.00;;;2.00;;
13973;SDS011;7060;43.770;4.008;2023-04-07T05:52:13;5.83;;;1.53;;
13973;SDS011;7060;43.770;4.008;2023-04-07T05:54:49;2.57;;;1.80;;
13973;SDS011;7060;43.770;4.008;2023-04-07T05:57:18;6.30;;;1.70;;
13973;SDS011;7060;43.770;4.008;2023-04-07T05:59:50;3.60;;;1.23;;
13973;SDS011;7060;43.770;4.008;2023-04-07T06:02:18;5.10;;;1.90;;
13973;SDS011;7060;43.770;4.008;2023-04-07T06:04:47;8.03;;;1.73;;
13973;SDS011;7060;43.770;4.008;2023-04-07T06:07:17;5.30;;;1.90;;
13973;SDS011;7060;43.770;4.008;2023-04-07T06:09:46;4.20;;;1.73;;
13973;SDS011;7060;43.770;4.008;2023-04-07T06:12:16;2.30;;;1.47;;
13973;SDS011;7060;43.770;4.008;2023-04-07T06:14:45;1.93;;;1.27;;
13973;SDS011;7060;43.770;4.008;2023-04-07T06:17:18;3.00;;;1.40;;
13973;SDS011;7060;43.770;4.008;2023-04-07T06:19:47;2.43;;;1.40;;
13973;SDS011;7060;43.770;4.008;2023-04-07T06:22:15;2.27;;;1.60;;
13973;SDS011;7060;43.770;4.008;2023-04-07T06:24:44;1.63;;;1.10;;
13973;SDS011;7060;43.770;4.008;2023-04-07T06:27:12;2.33;;;1.40;;
13973;SDS011;7060;43.770;4.008;2023-04-07T06:29:43;3.73;;;1.50;;
13973;SDS011;7060;43.770;4.008;2023-04-07T06:32:11;2.43;;;1.40;;
13973;SDS011;7060;43.770;4.008;2023-04-07T06:34:40;3.90;;;2.13;;
13973;SDS011;7060;43.770;4.008;2023-04-07T06:37:09;4.07;;;2.83;;
13973;SDS011;7060;43.770;4.008;2023-04-07T06:39:37;9.97;;;3.97;;
13973;SDS011;7060;43.770;4.008;2023-04-07T06:42:06;6.67;;;6.17;;
13973;SDS011;7060;43.770;4.008;2023-04-07T06:44:38;8.63;;;7.93;;
13973;SDS011;7060;43.770;4.008;2023-04-07T06:47:08;8.97;;;8.17;;
13973;SDS011;7060;43.770;4.008;2023-04-07T06:49:37;7.20;;;6.60;;
13973;SDS011;7060;43.770;4.008;2023-04-07T06:52:05;6.60;;;6.10;;
13973;SDS011;7060;43.770;4.008;2023-04-07T06:54:34;6.73;;;5.60;;
13973;SDS011;7060;43.770;4.008;2023-04-07T06:57:02;5.50;;;4.97;;
13973;SDS011;7060;43.770;4.008;2023-04-07T06:59:32;4.10;;;3.70;;
13973;SDS011;7060;43.770;4.008;2023-04-07T07:02:01;5.73;;;3.30;;
13973;SDS011;7060;43.770;4.008;2023-04-07T07:04:31;3.03;;;2.70;;
13973;SDS011;7060;43.770;4.008;2023-04-07T07:07:00;4.63;;;2.10;;
13973;SDS011;7060;43.770;4.008;2023-04-07T07:09:29;2.03;;;1.50;;
13973;SDS011;7060;43.770;4.008;2023-04-07T07:11:59;2.87;;;1.30;;
13973;SDS011;7060;43.770;4.008;2023-04-07T07:14:29;2.07;;;0.90;;
13973;SDS011;7060;43.770;4.008;2023-04-07T07:16:58;2.27;;;1.00;;
13973;SDS011;7060;43.770;4.008;2023-04-07T07:19:26;4.03;;;1.20;;
13973;SDS011;7060;43.770;4.008;2023-04-07T07:21:56;2.37;;;0.90;;
13973;SDS011;7060;43.770;4.008;2023-04-07T07:24:25;3.70;;;0.90;;
13973;SDS011;7060;43.770;4.008;2023-04-07T07:26:54;3.63;;;1.10;;
13973;SDS011;7060;43.770;4.008;2023-04-07T07:29:23;1.70;;;1.10;;
13973;SDS011;7060;43.770;4.008;2023-04-07T07:31:52;5.50;;;1.33;;
13973;SDS011;7060;43.770;4.008;2023-04-07T07:34:22;1.83;;;1.30;;
13973;SDS011;7060;43.770;4.008;2023-04-07T07:36:52;3.13;;;1.60;;
13973;SDS011;7060;43.770;4.008;2023-04-07T07:39:22;2.43;;;1.70;;
13973;SDS011;7060;43.770;4.008;2023-04-07T07:41:51;3.77;;;1.93;;
13973;SDS011;7060;43.770;4.008;2023-04-07T07:44:20;1.83;;;1.53;;
13973;SDS011;7060;43.770;4.008;2023-04-07T07:46:49;3.03;;;1.10;;
13973;SDS011;7060;43.770;4.008;2023-04-07T07:49:18;4.00;;;1.53;;
13973;SDS011;7060;43.770;4.008;2023-04-07T07:51:47;3.47;;;1.70;;
13973;SDS011;7060;43.770;4.008;2023-04-07T07:54:15;2.90;;;1.20;;
13973;SDS011;7060;43.770;4.008;2023-04-07T07:56:45;3.20;;;1.77;;
13973;SDS011;7060;43.770;4.008;2023-04-07T07:59:14;2.40;;;1.70;;
13973;SDS011;7060;43.770;4.008;2023-04-07T08:01:43;3.97;;;1.30;;
13973;SDS011;7060;43.770;4.008;2023-04-07T08:04:12;4.27;;;1.17;;
13973;SDS011;7060;43.770;4.008;2023-04-07T08:06:40;2.90;;;1.17;;
13973;SDS011;7060;43.770;4.008;2023-04-07T08:09:09;3.10;;;1.13;;
13973;SDS011;7060;43.770;4.008;2023-04-07T08:11:37;4.30;;;1.33;;
13973;SDS011;7060;43.770;4.008;2023-04-07T08:14:07;3.87;;;0.90;;
13973;SDS011;7060;43.770;4.008;2023-04-07T08:16:36;2.97;;;1.20;;
13973;SDS011;7060;43.770;4.008;2023-04-07T08:19:05;4.60;;;1.90;;
13973;SDS011;7060;43.770;4.008;2023-04-07T08:21:33;5.23;;;2.10;;
13973;SDS011;7060;43.770;4.008;2023-04-07T08:24:02;3.77;;;1.43;;
13973;SDS011;7060;43.770;4.008;2023-04-07T08:26:31;3.20;;;1.30;;
13973;SDS011;7060;43.770;4.008;2023-04-07T08:29:00;8.27;;;1.40;;
13973;SDS011;7060;43.770;4.008;2023-04-07T08:31:29;3.37;;;1.00;;
13973;SDS011;7060;43.770;4.008;2023-04-07T08:33:58;2.43;;;1.00;;
13973;SDS011;7060;43.770;4.008;2023-04-07T08:36:26;1.30;;;0.73;;
13973;SDS011;7060;43.770;4.008;2023-04-07T08:38:56;1.23;;;0.80;;
13973;SDS011;7060;43.770;4.008;2023-04-07T08:41:29;1.47;;;0.70;;
13973;SDS011;7060;43.770;4.008;2023-04-07T08:44:03;2.43;;;0.70;;
13973;SDS011;7060;43.770;4.008;2023-04-07T08:46:35;1.03;;;0.70;;
13973;SDS011;7060;43.770;4.008;2023-04-07T08:49:07;8.13;;;1.00;;
13973;SDS011;7060;43.770;4.008;2023-04-07T08:51:37;2.83;;;0.70;;
13973;SDS011;7060;43.770;4.008;2023-04-07T08:54:10;1.03;;;0.77;;
13973;SDS011;7060;43.770;4.008;2023-04-07T08:56:39;1.10;;;0.70;;
13973;SDS011;7060;43.770;4.008;2023-04-07T08:59:09;1.83;;;0.60;;
13973;SDS011;7060;43.770;4.008;2023-04-07T09:01:40;0.93;;;0.73;;
13973;SDS011;7060;43.770;4.008;2023-04-07T09:04:09;2.73;;;0.87;;
13973;SDS011;7060;43.770;4.008;2023-04-07T09:06:37;1.50;;;0.90;;
13973;SDS011;7060;43.770;4.008;2023-04-07T09:09:06;1.73;;;0.63;;
13973;SDS011;7060;43.770;4.008;2023-04-07T09:11:36;2.13;;;0.80;;
13973;SDS011;7060;43.770;4.008;2023-04-07T09:14:06;1.20;;;0.70;;
13973;SDS011;7060;43.770;4.008;2023-04-07T09:16:35;1.50;;;0.80;;
13973;SDS011;7060;43.770;4.008;2023-04-07T09:19:06;2.20;;;0.60;;
13973;SDS011;7060;43.770;4.008;2023-04-07T09:21:46;5.30;;;2.17;;
13973;SDS011;7060;43.770;4.008;2023-04-07T09:24:21;4.67;;;3.03;;
13973;SDS011;7060;43.770;4.008;2023-04-07T09:26:58;4.07;;;2.10;;
13973;SDS011;7060;43.770;4.008;2023-04-07T09:29:36;7.63;;;3.23;;
13973;SDS011;7060;43.770;4.008;2023-04-07T09:32:05;5.97;;;1.57;;
13973;SDS011;7060;43.770;4.008;2023-04-07T09:34:36;2.90;;;1.00;;
13973;SDS011;7060;43.770;4.008;2023-04-07T09:37:07;2.77;;;0.90;;
13973;SDS011;7060;43.770;4.008;2023-04-07T09:39:47;2.20;;;0.77;;
13973;SDS011;7060;43.770;4.008;2023-04-07T09:42:17;1.40;;;0.60;;
13973;SDS011;7060;43.770;4.008;2023-04-07T09:44:46;0.90;;;0.60;;
13973;SDS011;7060;43.770;4.008;2023-04-07T09:47:14;1.03;;;0.50;;
13973;SDS011;7060;43.770;4.008;2023-04-07T09:49:51;2.67;;;0.57;;
13973;SDS011;7060;43.770;4.008;2023-04-07T09:52:21;4.67;;;0.60;;
13973;SDS011;7060;43.770;4.008;2023-04-07T09:54:53;1.13;;;0.50;;
13973;SDS011;7060;43.770;4.008;2023-04-07T09:57:23;1.40;;;0.40;;
13973;SDS011;7060;43.770;4.008;2023-04-07T09:59:52;2.00;;;0.40;;
13973;SDS011;7060;43.770;4.008;2023-04-07T10:02:21;0.40;;;0.30;;
13973;SDS011;7060;43.770;4.008;2023-04-07T10:04:54;0.93;;;0.40;;
13973;SDS011;7060;43.770;4.008;2023-04-07T10:07:22;0.73;;;0.37;;
13973;SDS011;7060;43.770;4.008;2023-04-07T10:09:51;0.50;;;0.40;;
13973;SDS011;7060;43.770;4.008;2023-04-07T10:12:19;1.03;;;0.50;;
13973;SDS011;7060;43.770;4.008;2023-04-07T10:14:50;0.63;;;0.40;;
13973;SDS011;7060;43.770;4.008;2023-04-07T10:17:19;2.00;;;0.70;;
13973;SDS011;7060;43.770;4.008;2023-04-07T10:19:48;2.50;;;0.50;;
13973;SDS011;7060;43.770;4.008;2023-04-07T10:22:19;0.63;;;0.43;;
13973;SDS011;7060;43.770;4.008;2023-04-07T10:24:50;0.73;;;0.40;;
13973;SDS011;7060;43.770;4.008;2023-04-07T10:27:26;0.97;;;0.50;;
13973;SDS011;7060;43.770;4.008;2023-04-07T10:29:58;1.50;;;0.57;;
13973;SDS011;7060;43.770;4.008;2023-04-07T10:32:29;0.50;;;0.33;;
13973;SDS011;7060;43.770;4.008;2023-04-07T10:34:59;3.03;;;1.30;;
13973;SDS011;7060;43.770;4.008;2023-04-07T10:37:29;2.70;;;1.13;;
13973;SDS011;7060;43.770;4.008;2023-04-07T10:42:56;1.10;;;0.43;;
13973;SDS011;7060;43.770;4.008;2023-04-07T10:48:20;3.13;;;0.50;;
13973;SDS011;7060;43.770;4.008;2023-04-07T10:57:06;0.70;;;0.50;;
13973;SDS011;7060;43.770;4.008;2023-04-07T10:59:38;1.27;;;0.40;;
13973;SDS011;7060;43.770;4.008;2023-04-07T11:02:33;3.43;;;0.50;;
13973;SDS011;7060;43.770;4.008;2023-04-07T11:05:02;1.60;;;0.50;;
13973;SDS011;7060;43.770;4.008;2023-04-07T11:07:44;0.83;;;0.50;;
13973;SDS011;7060;43.770;4.008;2023-04-07T11:10:15;0.93;;;0.50;;
13973;SDS011;7060;43.770;4.008;2023-04-07T11:13:02;0.80;;;0.40;;
13973;SDS011;7060;43.770;4.008;2023-04-07T11:15:32;0.80;;;0.40;;
13973;SDS011;7060;43.770;4.008;2023-04-07T11:18:06;2.13;;;0.63;;
13973;SDS011;7060;43.770;4.008;2023-04-07T11:20:44;1.00;;;0.40;;
13973;SDS011;7060;43.770;4.008;2023-04-07T11:23:15;2.27;;;0.40;;
13973;SDS011;7060;43.770;4.008;2023-04-07T11:25:45;1.83;;;0.30;;
13973;SDS011;7060;43.770;4.008;2023-04-07T11:28:16;2.80;;;0.50;;
13973;SDS011;7060;43.770;4.008;2023-04-07T11:30:46;0.50;;;0.30;;
13973;SDS011;7060;43.770;4.008;2023-04-07T11:33:18;0.87;;;0.40;;
13973;SDS011;7060;43.770;4.008;2023-04-07T11:35:48;0.80;;;0.40;;
13973;SDS011;7060;43.770;4.008;2023-04-07T11:38:18;0.80;;;0.32;;
13973;SDS011;7060;43.770;4.008;2023-04-07T11:40:46;1.23;;;0.40;;
13973;SDS011;7060;43.770;4.008;2023-04-07T11:43:17;2.17;;;0.50;;
13973;SDS011;7060;43.770;4.008;2023-04-07T11:46:02;1.00;;;0.50;;
13973;SDS011;7060;43.770;4.008;2023-04-07T11:48:32;1.63;;;0.40;;
13973;SDS011;7060;43.770;4.008;2023-04-07T11:51:02;0.98;;;0.32;;
13973;SDS011;7060;43.770;4.008;2023-04-07T11:53:31;1.60;;;0.40;;
13973;SDS011;7060;43.770;4.008;2023-04-07T11:56:02;2.53;;;0.38;;
13973;SDS011;7060;43.770;4.008;2023-04-07T11:58:34;3.65;;;0.47;;
13973;SDS011;7060;43.770;4.008;2023-04-07T12:01:03;0.85;;;0.32;;
13973;SDS011;7060;43.770;4.008;2023-04-07T12:03:35;1.60;;;0.50;;
13973;SDS011;7060;43.770;4.008;2023-04-07T12:06:05;1.87;;;0.50;;
13973;SDS011;7060;43.770;4.008;2023-04-07T12:08:37;1.53;;;0.40;;
13973;SDS011;7060;43.770;4.008;2023-04-07T12:11:07;1.23;;;0.50;;
13973;SDS011;7060;43.770;4.008;2023-04-07T12:13:37;0.73;;;0.43;;
13973;SDS011;7060;43.770;4.008;2023-04-07T12:16:07;0.40;;;0.20;;
13973;SDS011;7060;43.770;4.008;2023-04-07T12:18:35;0.60;;;0.35;;
13973;SDS011;7060;43.770;4.008;2023-04-07T12:21:03;1.43;;;0.30;;
13973;SDS011;7060;43.770;4.008;2023-04-07T12:23:32;1.52;;;0.82;;
13973;SDS011;7060;43.770;4.008;2023-04-07T12:26:00;0.60;;;0.33;;
13973;SDS011;7060;43.770;4.008;2023-04-07T12:28:29;1.05;;;0.30;;
13973;SDS011;7060;43.770;4.008;2023-04-07T12:30:59;2.03;;;0.60;;
13973;SDS011;7060;43.770;4.008;2023-04-07T12:33:27;0.77;;;0.40;;
13973;SDS011;7060;43.770;4.008;2023-04-07T12:35:56;1.93;;;0.60;;
13973;SDS011;7060;43.770;4.008;2023-04-07T12:38:24;0.93;;;0.33;;
13973;SDS011;7060;43.770;4.008;2023-04-07T12:40:52;0.90;;;0.47;;
13973;SDS011;7060;43.770;4.008;2023-04-07T12:43:21;3.13;;;0.60;;
13973;SDS011;7060;43.770;4.008;2023-04-07T12:45:49;1.30;;;0.40;;
13973;SDS011;7060;43.770;4.008;2023-04-07T12:48:20;0.53;;;0.33;;
13973;SDS011;7060;43.770;4.008;2023-04-07T12:50:49;0.97;;;0.47;;
13973;SDS011;7060;43.770;4.008;2023-04-07T12:53:17;0.73;;;0.40;;
13973;SDS011;7060;43.770;4.008;2023-04-07T12:55:46;0.93;;;0.57;;
13973;SDS011;7060;43.770;4.008;2023-04-07T12:58:16;1.27;;;0.30;;
13973;SDS011;7060;43.770;4.008;2023-04-07T13:00:44;0.60;;;0.40;;
13973;SDS011;7060;43.770;4.008;2023-04-07T13:03:14;1.42;;;0.43;;
13973;SDS011;7060;43.770;4.008;2023-04-07T13:05:44;1.13;;;0.50;;
13973;SDS011;7060;43.770;4.008;2023-04-07T13:08:14;2.17;;;0.63;;
13973;SDS011;7060;43.770;4.008;2023-04-07T13:10:42;1.27;;;0.40;;
13973;SDS011;7060;43.770;4.008;2023-04-07T13:13:10;0.65;;;0.30;;
13973;SDS011;7060;43.770;4.008;2023-04-07T13:15:39;2.10;;;0.47;;
13973;SDS011;7060;43.770;4.008;2023-04-07T13:18:08;0.32;;;0.20;;
13973;SDS011;7060;43.770;4.008;2023-04-07T13:20:37;1.58;;;0.40;;
13973;SDS011;7060;43.770;4.008;2023-04-07T13:23:07;1.45;;;0.30;;
13973;SDS011;7060;43.770;4.008;2023-04-07T13:25:36;1.20;;;0.40;;
13973;SDS011;7060;43.770;4.008;2023-04-07T13:28:04;1.30;;;0.40;;
13973;SDS011;7060;43.770;4.008;2023-04-07T13:30:33;1.10;;;0.40;;
13973;SDS011;7060;43.770;4.008;2023-04-07T13:33:03;2.58;;;0.70;;
13973;SDS011;7060;43.770;4.008;2023-04-07T13:35:31;1.30;;;0.40;;
13973;SDS011;7060;43.770;4.008;2023-04-07T13:38:01;0.98;;;0.38;;
13973;SDS011;7060;43.770;4.008;2023-04-07T13:40:31;2.05;;;0.47;;
13973;SDS011;7060;43.770;4.008;2023-04-07T13:43:00;1.38;;;0.40;;
13973;SDS011;7060;43.770;4.008;2023-04-07T13:45:28;1.50;;;0.22;;
13973;SDS011;7060;43.770;4.008;2023-04-07T13:47:57;1.92;;;0.50;;
13973;SDS011;7060;43.770;4.008;2023-04-07T13:50:26;0.30;;;0.30;;
13973;SDS011;7060;43.770;4.008;2023-04-07T13:52:54;1.13;;;0.43;;
13973;SDS011;7060;43.770;4.008;2023-04-07T13:55:23;0.40;;;0.30;;
13973;SDS011;7060;43.770;4.008;2023-04-07T13:57:53;0.47;;;0.30;;
13973;SDS011;7060;43.770;4.008;2023-04-07T14:00:21;0.90;;;0.50;;
13973;SDS011;7060;43.770;4.008;2023-04-07T14:02:50;2.17;;;0.50;;
13973;SDS011;7060;43.770;4.008;2023-04-07T14:05:18;2.87;;;0.50;;
13973;SDS011;7060;43.770;4.008;2023-04-07T14:07:47;0.90;;;0.40;;
13973;SDS011;7060;43.770;4.008;2023-04-07T14:10:16;1.47;;;0.40;;
13973;SDS011;7060;43.770;4.008;2023-04-07T14:12:45;3.00;;;0.63;;
13973;SDS011;7060;43.770;4.008;2023-04-07T14:15:15;2.47;;;0.63;;
13973;SDS011;7060;43.770;4.008;2023-04-07T14:17:44;2.15;;;0.55;;
13973;SDS011;7060;43.770;4.008;2023-04-07T14:20:12;0.88;;;0.50;;
13973;SDS011;7060;43.770;4.008;2023-04-07T14:22:41;1.42;;;0.50;;
13973;SDS011;7060;43.770;4.008;2023-04-07T14:25:10;0.40;;;0.40;;
13973;SDS011;7060;43.770;4.008;2023-04-07T14:27:38;3.42;;;0.40;;
13973;SDS011;7060;43.770;4.008;2023-04-07T14:30:07;1.80;;;0.40;;
13973;SDS011;7060;43.770;4.008;2023-04-07T14:32:38;2.58;;;0.60;;
13973;SDS011;7060;43.770;4.008;2023-04-07T14:35:06;3.92;;;0.60;;
13973;SDS011;7060;43.770;4.008;2023-04-07T14:37:35;0.75;;;0.50;;
13973;SDS011;7060;43.770;4.008;2023-04-07T14:40:05;0.65;;;0.40;;
13973;SDS011;7060;43.770;4.008;2023-04-07T14:42:34;1.33;;;0.50;;
13973;SDS011;7060;43.770;4.008;2023-04-07T14:45:03;1.25;;;0.70;;
13973;SDS011;7060;43.770;4.008;2023-04-07T14:47:33;1.52;;;0.57;;
13973;SDS011;7060;43.770;4.008;2023-04-07T14:50:03;3.28;;;0.70;;
13973;SDS011;7060;43.770;4.008;2023-04-07T14:52:32;2.78;;;0.60;;
13973;SDS011;7060;43.770;4.008;2023-04-07T14:55:00;2.30;;;0.70;;
13973;SDS011;7060;43.770;4.008;2023-04-07T14:57:28;0.70;;;0.63;;
13973;SDS011;7060;43.770;4.008;2023-04-07T14:59:57;1.95;;;0.55;;
13973;SDS011;7060;43.770;4.008;2023-04-07T15:02:25;3.67;;;0.60;;
13973;SDS011;7060;43.770;4.008;2023-04-07T15:04:55;1.30;;;0.70;;
13973;SDS011;7060;43.770;4.008;2023-04-07T15:07:25;2.13;;;0.70;;
13973;SDS011;7060;43.770;4.008;2023-04-07T15:09:54;1.13;;;0.70;;
13973;SDS011;7060;43.770;4.008;2023-04-07T15:12:25;1.43;;;0.67;;
13973;SDS011;7060;43.770;4.008;2023-04-07T15:14:58;3.97;;;0.70;;
13973;SDS011;7060;43.770;4.008;2023-04-07T15:17:26;2.10;;;0.60;;
13973;SDS011;7060;43.770;4.008;2023-04-07T15:20:09;20.33;;;2.23;;
13973;SDS011;7060;43.770;4.008;2023-04-07T15:22:40;1.70;;;0.63;;
13973;SDS011;7060;43.770;4.008;2023-04-07T15:25:08;1.70;;;0.60;;
13973;SDS011;7060;43.770;4.008;2023-04-07T15:27:37;2.55;;;0.60;;
13973;SDS011;7060;43.770;4.008;2023-04-07T15:30:06;2.00;;;0.60;;
13973;SDS011;7060;43.770;4.008;2023-04-07T15:32:35;1.55;;;0.50;;